Time;durP1;ratioP1;P1;durP2;ratioP2;P2;SDS_P1;SDS_P2;PMS_P1;PMS_P2;Temp;Humidity;BMP_temperature;BMP_pressure;BME280_temperature;BME280_humidity;BME280_pressure;Samples;Min_cycle;Max_cycle;Signal;HPM_P1;HPM_P2
2022/08/10 00:00:53;;;;;;;4.78;1.83;;;;;;;23.01;45.19;102533.34;5093253;28;20488;-73
2022/08/10 00:03:24;;;;;;;4.55;1.80;;;;;;;22.98;45.25;102538.28;5093373;27;20054;-72
2022/08/10 00:05:53;;;;;;;3.08;1.60;;;;;;;22.94;45.02;102536.84;5093663;28;20036;-72
2022/08/10 00:08:23;;;;;;;3.15;1.85;;;;;;;22.90;45.16;102535.41;5092157;28;20507;-73
2022/08/10 00:10:55;;;;;;;2.33;1.80;;;;;;;22.85;45.55;102533.13;5092506;28;20044;-71
2022/08/10 00:13:26;;;;;;;3.78;1.80;;;;;;;22.80;45.45;102535.44;5093648;28;20043;-72
2022/08/10 00:15:52;;;;;;;2.75;1.90;;;;;;;22.76;45.60;102532.09;5091847;28;20133;-73
2022/08/10 00:18:25;;;;;;;4.30;1.90;;;;;;;22.74;45.51;102519.56;5092278;28;20032;-74
2022/08/10 00:21:03;;;;;;;6.95;1.98;;;;;;;22.71;45.62;102526.22;5091989;28;20084;-73
2022/08/10 00:23:35;;;;;;;3.65;2.15;;;;;;;22.68;45.64;102521.03;5091866;28;20481;-73
2022/08/10 00:26:02;;;;;;;2.83;1.80;;;;;;;22.67;46.16;102524.78;5090101;28;20507;-73
2022/08/10 00:28:29;;;;;;;2.63;2.10;;;;;;;22.63;46.13;102519.75;5092442;28;20036;-75
2022/08/10 00:30:56;;;;;;;4.18;1.85;;;;;;;22.61;46.07;102522.63;5090383;28;20044;-74
2022/08/10 00:33:24;;;;;;;2.97;1.92;;;;;;;22.56;46.01;102514.00;5092442;28;20036;-73
2022/08/10 00:35:51;;;;;;;2.83;2.05;;;;;;;22.53;46.13;102519.75;5091896;28;20040;-73
2022/08/10 00:38:18;;;;;;;2.30;2.10;;;;;;;22.51;46.54;102521.78;5091891;28;20047;-72
2022/08/10 00:40:45;;;;;;;4.60;2.05;;;;;;;22.46;46.53;102524.09;5091746;28;20050;-72
2022/08/10 00:43:12;;;;;;;2.63;2.10;;;;;;;22.44;46.35;102517.91;5091906;28;20167;-72
2022/08/10 00:45:39;;;;;;;2.42;1.98;;;;;;;22.41;46.44;102520.94;5091579;28;20429;-72
2022/08/10 00:48:06;;;;;;;2.05;1.85;;;;;;;22.39;46.51;102512.84;5091630;28;20081;-73
2022/08/10 00:50:33;;;;;;;2.47;1.63;;;;;;;22.39;46.62;102512.00;5091943;28;20385;-72
2022/08/10 00:53:01;;;;;;;2.55;1.95;;;;;;;22.36;46.46;102504.94;5091510;28;20499;-73
2022/08/10 00:55:29;;;;;;;2.25;2.00;;;;;;;22.32;46.53;102506.25;5090318;28;20071;-72
2022/08/10 00:57:56;;;;;;;3.63;2.30;;;;;;;22.29;46.61;102503.75;5091690;28;20036;-72
2022/08/10 01:00:23;;;;;;;3.50;2.10;;;;;;;22.26;46.67;102509.53;5090373;28;20040;-72
2022/08/10 01:02:50;;;;;;;3.05;2.30;;;;;;;22.24;47.18;102514.28;5091298;28;20040;-73
2022/08/10 01:05:25;;;;;;;2.58;2.28;;;;;;;22.23;47.12;102508.94;5091686;28;20094;-72
2022/08/10 01:08:18;;;;;;;3.03;2.47;;;;;;;22.19;47.05;102497.44;5091822;28;20124;-72
2022/08/10 01:11:10;;;;;;;4.90;2.42;;;;;;;22.18;47.16;102507.50;5091495;28;20028;-72
2022/08/10 01:14:06;;;;;;;2.78;2.05;;;;;;;22.16;47.26;102498.59;5092268;28;20491;-72
2022/08/10 01:16:43;;;;;;;3.72;2.10;;;;;;;22.12;47.33;102497.16;5091297;28;20052;-73
2022/08/10 01:19:32;;;;;;;2.97;1.98;;;;;;;22.09;47.22;102504.78;5070480;28;20041;-72
2022/08/10 01:22:20;;;;;;;3.45;2.30;;;;;;;22.06;47.24;102500.47;5070155;28;20119;-72
2022/08/10 01:25:03;;;;;;;3.00;2.30;;;;;;;22.05;47.62;102497.88;5088377;28;20044;-72
2022/08/10 01:27:44;;;;;;;3.42;2.10;;;;;;;22.02;47.63;102495.38;5091601;28;20123;-72
2022/08/10 01:30:13;;;;;;;3.22;2.20;;;;;;;22.01;47.56;102494.53;5091459;28;20133;-73
2022/08/10 01:32:46;;;;;;;4.03;2.20;;;;;;;21.98;47.66;102500.28;5091574;28;20046;-72
2022/08/10 01:35:34;;;;;;;2.50;2.30;;;;;;;21.96;47.62;102495.97;5092070;28;20044;-72
2022/08/10 01:38:12;;;;;;;4.05;2.40;;;;;;;21.95;47.80;102499.69;5092104;28;20119;-73
2022/08/10 01:40:54;;;;;;;3.63;2.47;;;;;;;21.92;48.06;102494.50;5078124;28;20062;-72
2022/08/10 01:43:26;;;;;;;3.40;2.80;;;;;;;21.92;47.94;102489.03;5091890;28;20039;-72
2022/08/10 01:45:58;;;;;;;3.30;2.58;;;;;;;21.88;47.95;102492.06;5092215;28;20037;-72
2022/08/10 01:48:30;;;;;;;2.78;2.50;;;;;;;21.85;47.87;102495.09;5091287;28;20046;-73
2022/08/10 01:51:00;;;;;;;3.58;2.60;;;;;;;21.84;48.11;102495.22;5090819;28;20355;-72
2022/08/10 01:54:07;;;;;;;4.75;2.80;;;;;;;21.83;47.98;102496.25;5090852;28;20044;-72
2022/08/10 01:56:44;;;;;;;3.47;2.70;;;;;;;21.81;47.92;102498.25;5090910;28;20036;-73
2022/08/10 01:59:17;;;;;;;5.13;3.40;;;;;;;21.79;48.38;102500.25;5081857;28;20058;-72
2022/08/10 02:01:51;;;;;;;3.65;2.60;;;;;;;21.77;48.18;102494.06;5089348;28;20050;-72
2022/08/10 02:04:24;;;;;;;3.53;2.78;;;;;;;21.76;48.22;102492.34;5079557;28;20043;-72
2022/08/10 02:06:53;;;;;;;3.72;2.70;;;;;;;21.75;48.46;102490.63;5090511;27;20044;-72
2022/08/10 02:09:28;;;;;;;3.38;2.45;;;;;;;21.72;48.57;102494.50;5092992;28;20028;-72
2022/08/10 02:12:04;;;;;;;3.33;2.60;;;;;;;21.72;48.61;102499.09;5094485;28;20051;-72
2022/08/10 02:14:55;;;;;;;5.28;3.03;;;;;;;21.72;48.74;102499.09;5094407;28;20040;-73
2022/08/10 02:17:25;;;;;;;3.45;2.72;;;;;;;21.71;48.48;102508.31;5094295;28;20494;-72
2022/08/10 02:20:19;;;;;;;3.88;2.40;;;;;;;21.69;48.63;102500.25;5093101;28;20039;-72
2022/08/10 02:22:50;;;;;;;3.53;2.67;;;;;;;21.69;48.60;102504.84;5093812;28;20040;-72
2022/08/10 02:25:32;;;;;;;3.85;2.47;;;;;;;21.66;48.27;102502.41;5079924;28;20036;-74
2022/08/10 02:28:13;;;;;;;3.83;2.88;;;;;;;21.64;48.60;102499.81;5092618;28;20448;-72
2022/08/10 02:31:00;;;;;;;4.45;3.15;;;;;;;21.63;48.92;102503.56;5093886;28;20581;-72
2022/08/10 02:33:54;;;;;;;4.82;2.70;;;;;;;21.59;48.82;102503.97;5094017;28;20050;-72
2022/08/10 02:36:28;;;;;;;8.85;3.22;;;;;;;21.55;48.95;102503.34;5081649;28;20060;-72
2022/08/10 02:38:57;;;;;;;5.13;2.75;;;;;;;21.52;48.87;102492.69;5094348;27;20036;-72
2022/08/10 02:41:54;;;;;;;5.15;2.92;;;;;;;21.49;48.97;102490.25;5093919;28;20412;-72
2022/08/10 02:44:49;;;;;;;3.72;2.97;;;;;;;21.47;48.91;102490.38;5092361;28;20051;-72
2022/08/10 02:47:55;;;;;;;5.18;2.95;;;;;;;21.40;48.95;102494.69;5092692;28;20048;-72
2022/08/10 02:50:29;;;;;;;4.57;3.05;;;;;;;21.38;48.77;102496.69;5075620;28;20402;-71
2022/08/10 02:53:28;;;;;;;3.92;3.25;;;;;;;21.34;48.97;102487.03;5092850;28;20042;-72
2022/08/10 02:56:33;;;;;;;4.68;2.95;;;;;;;21.33;49.40;102477.13;5091943;28;20060;-72
2022/08/10 02:59:13;;;;;;;4.35;3.13;;;;;;;21.34;49.33;102483.44;5093445;28;20485;-73
2022/08/10 03:01:46;;;;;;;4.65;3.00;;;;;;;21.32;49.03;102480.00;5093603;28;20050;-72
2022/08/10 03:04:36;;;;;;;4.88;3.30;;;;;;;21.26;49.53;102475.94;5093314;28;20066;-72
2022/08/10 03:07:27;;;;;;;3.67;3.33;;;;;;;21.25;49.26;102483.28;5093599;28;20040;-72
2022/08/10 03:10:27;;;;;;;4.88;3.38;;;;;;;21.23;49.55;102479.81;5093516;28;20076;-72
2022/08/10 03:15:27;;;;;;;4.00;3.55;;;;;;;21.17;49.45;102476.75;5093143;28;20576;-72
2022/08/10 03:17:55;;;;;;;5.22;3.70;;;;;;;21.16;49.83;102466.81;5091849;28;20044;-72
2022/08/10 03:20:25;;;;;;;4.65;3.65;;;;;;;21.13;49.43;102473.44;5091723;28;20036;-72
2022/08/10 03:23:15;;;;;;;4.88;3.03;;;;;;;21.09;49.81;102462.91;5093105;28;20058;-72
2022/08/10 03:25:44;;;;;;;4.55;3.50;;;;;;;21.07;49.68;102471.25;5092807;28;20035;-72
2022/08/10 03:28:25;;;;;;;4.05;3.22;;;;;;;21.05;50.16;102472.38;5093024;28;20044;-72
2022/08/10 03:30:53;;;;;;;3.65;3.35;;;;;;;21.02;50.01;102475.41;5092294;28;20036;-71
2022/08/10 03:33:27;;;;;;;5.88;3.83;;;;;;;20.98;50.24;102471.22;5093130;28;20468;-71
2022/08/10 03:35:54;;;;;;;4.53;3.78;;;;;;;20.98;50.27;102471.22;5092981;28;20048;-72
2022/08/10 03:38:43;;;;;;;5.18;3.78;;;;;;;20.97;49.90;102470.34;5093402;28;20480;-72
2022/08/10 03:41:12;;;;;;;6.35;3.35;;;;;;;20.97;50.40;102466.75;5092802;28;20444;-71
2022/08/10 03:43:48;;;;;;;3.90;3.22;;;;;;;20.94;50.04;102473.34;5093081;28;20071;-71
2022/08/10 03:46:18;;;;;;;5.05;4.28;;;;;;;20.91;50.38;102471.75;5089007;28;20139;-72
2022/08/10 03:48:48;;;;;;;4.63;4.15;;;;;;;20.87;50.40;102474.91;5093263;28;20036;-72
2022/08/10 03:51:18;;;;;;;7.07;4.00;;;;;;;20.86;50.53;102475.91;5092787;28;20074;-72
2022/08/10 03:53:49;;;;;;;6.00;4.10;;;;;;;20.84;50.34;102469.72;5092922;28;20533;-73
2022/08/10 03:56:38;;;;;;;4.35;3.83;;;;;;;20.81;50.25;102465.38;5091556;28;20039;-73
2022/08/10 03:59:13;;;;;;;5.53;3.95;;;;;;;20.79;50.59;102471.97;5091579;28;20036;-73
2022/08/10 04:01:42;;;;;;;6.72;3.75;;;;;;;20.78;50.72;102468.38;5092089;28;20040;-73
2022/08/10 04:04:28;;;;;;;5.93;4.10;;;;;;;20.78;50.44;102471.09;5079839;28;20066;-74
2022/08/10 04:06:57;;;;;;;5.22;4.30;;;;;;;20.78;50.65;102471.09;5092362;28;20055;-73
2022/08/10 04:09:30;;;;;;;4.80;3.65;;;;;;;20.76;50.51;102469.50;5091488;28;20044;-74
2022/08/10 04:12:16;;;;;;;4.55;3.80;;;;;;;20.75;50.60;102465.03;5092246;28;20051;-74
2022/08/10 04:14:43;;;;;;;5.55;4.18;;;;;;;20.75;50.60;102475.97;5091263;28;20078;-75
2022/08/10 04:17:22;;;;;;;5.30;4.00;;;;;;;20.74;50.87;102469.63;5092297;28;20036;-74
2022/08/10 04:20:16;;;;;;;6.15;4.28;;;;;;;20.75;51.00;102476.81;5092619;28;20055;-74
2022/08/10 04:22:47;;;;;;;4.85;3.80;;;;;;;20.74;51.10;102469.63;5092186;28;20043;-72
2022/08/10 04:25:14;;;;;;;5.40;4.50;;;;;;;20.72;50.93;102471.63;5092211;27;20436;-72
2022/08/10 04:27:42;;;;;;;8.52;4.30;;;;;;;20.71;51.12;102469.91;5092864;28;20036;-72
2022/08/10 04:30:09;;;;;;;5.75;3.90;;;;;;;20.69;51.28;102469.19;5092168;28;20046;-74
2022/08/10 04:32:38;;;;;;;5.13;4.28;;;;;;;20.66;50.93;102468.59;5091650;28;20482;-74
2022/08/10 04:35:11;;;;;;;5.68;4.28;;;;;;;20.62;51.17;102477.03;5090834;28;20050;-72
2022/08/10 04:37:40;;;;;;;5.07;4.20;;;;;;;20.59;51.27;102471.84;5092254;28;20101;-73
2022/08/10 04:40:15;;;;;;;6.25;4.07;;;;;;;20.58;51.20;102469.25;5092636;28;20072;-73
2022/08/10 04:43:00;;;;;;;7.95;4.57;;;;;;;20.57;51.30;102473.00;5092626;28;20043;-74
2022/08/10 04:45:33;;;;;;;4.93;4.20;;;;;;;20.55;51.41;102469.53;5092564;28;20040;-73
2022/08/10 04:48:23;;;;;;;7.32;4.43;;;;;;;20.57;51.46;102473.00;5092117;28;20048;-73
2022/08/10 04:51:11;;;;;;;6.43;4.60;;;;;;;20.59;51.35;102474.59;5091867;28;20040;-73
2022/08/10 04:53:49;;;;;;;5.03;4.40;;;;;;;20.58;51.28;102469.25;5091613;27;20048;-73
2022/08/10 04:56:34;;;;;;;4.30;3.85;;;;;;;20.57;51.36;102473.00;5091466;28;20047;-73
2022/08/10 04:59:00;;;;;;;7.22;4.35;;;;;;;20.56;51.37;102469.41;5091459;28;20127;-73
2022/08/10 05:01:28;;;;;;;5.68;4.50;;;;;;;20.57;51.88;102467.53;5091406;28;20402;-74
2022/08/10 05:04:15;;;;;;;5.50;4.68;;;;;;;20.59;51.75;102473.72;5091287;28;20052;-74
2022/08/10 05:07:02;;;;;;;5.10;4.30;;;;;;;20.59;51.70;102471.84;5091211;28;20047;-75
2022/08/10 05:09:28;;;;;;;5.55;4.30;;;;;;;20.61;51.89;102471.72;5091463;28;20115;-73
2022/08/10 05:11:55;;;;;;;6.88;4.70;;;;;;;20.61;51.84;102469.84;5073163;28;20053;-73
2022/08/10 05:14:22;;;;;;;4.93;4.22;;;;;;;20.63;51.95;102472.44;5091501;28;20036;-74
2022/08/10 05:16:49;;;;;;;7.68;4.32;;;;;;;20.65;51.79;102475.03;5090497;27;20062;-74
2022/08/10 05:19:15;;;;;;;5.38;4.25;;;;;;;20.65;51.94;102469.59;5091181;28;20040;-74
2022/08/10 05:21:43;;;;;;;7.68;5.18;;;;;;;20.65;51.67;102475.91;5091043;28;20040;-74
2022/08/10 05:24:31;;;;;;;6.13;4.85;;;;;;;20.66;51.89;102474.91;5090940;28;20462;-74
2022/08/10 05:26:57;;;;;;;9.27;4.20;;;;;;;20.66;51.79;102477.63;5090882;27;20406;-74
2022/08/10 05:29:36;;;;;;;5.72;4.53;;;;;;;20.68;51.82;102477.50;5090596;28;20064;-74
2022/08/10 05:32:03;;;;;;;6.28;4.70;;;;;;;20.68;52.00;102483.81;5090771;28;20043;-74
2022/08/10 05:34:31;;;;;;;4.97;4.40;;;;;;;20.69;51.96;102485.56;5090968;28;20064;-74
2022/08/10 05:36:58;;;;;;;5.65;4.47;;;;;;;20.70;52.29;102492.75;5090590;28;20132;-74
2022/08/10 05:39:25;;;;;;;6.38;4.70;;;;;;;20.73;52.27;102484.28;5090807;28;20151;-74
2022/08/10 05:41:58;;;;;;;5.30;4.75;;;;;;;20.76;52.20;102483.16;5090907;28;20059;-74
2022/08/10 05:44:27;;;;;;;8.23;5.65;;;;;;;20.76;52.50;102481.28;5092368;27;20059;-74
2022/08/10 05:46:53;;;;;;;5.15;4.65;;;;;;;20.77;52.19;102485.75;5095322;28;20490;-73
2022/08/10 05:49:20;;;;;;;7.00;5.32;;;;;;;20.82;52.27;102483.50;5095214;28;20039;-73
2022/08/10 05:51:47;;;;;;;7.93;5.20;;;;;;;20.87;52.62;102491.28;5077091;28;20048;-73
2022/08/10 05:54:14;;;;;;;6.40;5.13;;;;;;;20.91;52.40;102488.16;5095005;28;20040;-73
2022/08/10 05:56:45;;;;;;;7.30;4.82;;;;;;;20.97;52.82;102494.06;5094707;28;20044;-72
2022/08/10 05:59:48;;;;;;;5.65;4.78;;;;;;;21.01;52.54;102490.91;5094571;28;20517;-72
2022/08/10 06:02:46;;;;;;;6.40;5.10;;;;;;;21.07;52.62;102498.56;5094585;28;20066;-72
2022/08/10 06:05:18;;;;;;;5.75;4.80;;;;;;;21.11;52.24;102491.81;5094348;28;20070;-76
2022/08/10 06:07:54;;;;;;;9.27;4.97;;;;;;;21.18;52.43;102492.13;5108079;28;20036;-74
2022/08/10 06:10:23;;;;;;;6.35;5.32;;;;;;;21.24;52.46;102491.63;5094402;28;20062;-74
2022/08/10 06:16:15;;;;;;;5.85;4.68;;;;;;;21.37;52.38;102489.50;5094706;28;20036;-75
2022/08/10 06:18:43;;;;;;;6.95;4.68;;;;;;;21.46;52.44;102493.25;5093897;28;20087;-73
2022/08/10 06:21:12;;;;;;;5.75;5.15;;;;;;;21.57;52.59;102495.91;5093609;28;20036;-72
2022/08/10 06:23:44;;;;;;;6.70;4.93;;;;;;;21.71;52.34;102486.44;5102840;28;20412;-73
2022/08/10 06:26:11;;;;;;;5.57;4.38;;;;;;;21.84;52.53;102487.88;5092950;28;20139;-76
2022/08/10 06:28:57;;;;;;;10.05;5.00;;;;;;;21.97;52.63;102493.06;5093936;28;20111;-75
2022/08/10 06:31:32;;;;;;;6.68;4.85;;;;;;;22.15;52.02;102485.91;5094286;28;20040;-76
2022/08/10 06:34:36;;;;;;;;;;;;;;;22.33;51.84;102490.69;5094201;28;20052;-74
2022/08/10 06:37:06;;;;;;;5.75;4.70;;;;;;;22.57;51.75;102490.19;5092508;28;20311;-76
2022/08/10 06:39:33;;;;;;;5.78;4.60;;;;;;;22.72;51.43;102486.84;5093890;28;20040;-76
2022/08/10 06:42:08;;;;;;;6.70;5.05;;;;;;;22.87;51.67;102486.41;5093266;28;20046;-73
2022/08/10 06:44:59;;;;;;;6.30;4.70;;;;;;;23.01;51.25;102486.78;5093707;28;20101;-72
2022/08/10 06:47:32;;;;;;;6.82;4.60;;;;;;;23.17;51.17;102485.28;5093900;28;20086;-72
2022/08/10 06:50:06;;;;;;;6.80;4.50;;;;;;;23.30;50.82;102481.19;5091957;28;20031;-72
2022/08/10 06:52:35;;;;;;;;;;;;;;;23.39;50.71;102488.50;5078341;28;20097;-72
2022/08/10 06:55:04;;;;;;;6.22;3.90;;;;;;;23.54;50.32;102491.56;5093681;28;19924;-73
2022/08/10 06:57:37;;;;;;;6.32;3.90;;;;;;;23.65;50.51;102482.31;5093714;28;20054;-73
2022/08/10 07:00:05;;;;;;;6.07;3.80;;;;;;;23.80;50.08;102489.00;5092340;28;20118;-73
2022/08/10 07:03:00;;;;;;;6.32;3.95;;;;;;;24.00;49.92;102486.97;5092986;28;20054;-74
2022/08/10 07:05:37;;;;;;;7.43;3.90;;;;;;;24.20;49.68;102491.28;5093207;28;20405;-74
2022/08/10 07:08:04;;;;;;;8.02;3.97;;;;;;;24.32;49.34;102500.16;5093680;28;20460;-73
2022/08/10 07:10:32;;;;;;;5.20;3.78;;;;;;;24.42;49.15;102497.31;5092752;28;20046;-74
2022/08/10 07:13:18;;;;;;;5.75;3.80;;;;;;;24.55;48.90;102509.63;5093491;28;20036;-73
2022/08/10 07:16:10;;;;;;;5.50;4.15;;;;;;;24.67;48.89;102494.63;5093220;28;20044;-73
2022/08/10 07:18:39;;;;;;;5.20;3.97;;;;;;;24.78;48.50;102495.38;5092879;28;20387;-74
2022/08/10 07:21:07;;;;;;;7.93;3.78;;;;;;;24.90;48.43;102505.06;5093007;28;20052;-74
2022/08/10 07:23:35;;;;;;;4.18;3.65;;;;;;;25.05;48.14;102502.59;5092994;28;20044;-73
2022/08/10 07:26:23;;;;;;;6.30;3.75;;;;;;;25.21;48.16;102505.44;5093135;28;20424;-73
2022/08/10 07:28:51;;;;;;;4.90;3.67;;;;;;;25.38;47.94;102501.75;5092337;28;20043;-74
2022/08/10 07:31:22;;;;;;;4.65;3.50;;;;;;;25.55;47.63;102502.66;5093453;28;20058;-74
2022/08/10 07:34:13;;;;;;;4.18;3.40;;;;;;;25.75;47.51;102504.13;5091942;28;20052;-73
2022/08/10 07:36:59;;;;;;;3.75;3.08;;;;;;;25.90;46.75;102502.44;5092968;28;20044;-73
2022/08/10 07:39:29;;;;;;;4.95;3.00;;;;;;;26.05;46.62;102505.41;5092813;28;20054;-73
2022/08/10 07:42:20;;;;;;;8.48;3.22;;;;;;;26.22;46.54;102498.03;5092693;28;20584;-74
2022/08/10 07:44:49;;;;;;;4.57;3.38;;;;;;;26.37;46.25;102504.59;5092552;27;20048;-72
2022/08/10 07:47:23;;;;;;;4.10;2.83;;;;;;;26.51;45.84;102503.03;5088003;28;20109;-75
2022/08/10 07:50:13;;;;;;;6.38;2.92;;;;;;;26.70;45.55;102501.81;5082075;28;20508;-74
2022/08/10 07:52:42;;;;;;;4.13;2.70;;;;;;;26.85;45.37;102497.31;5092783;28;20036;-75
2022/08/10 07:55:17;;;;;;;3.30;2.40;;;;;;;27.02;45.03;102495.41;5092315;28;20506;-75
2022/08/10 07:57:47;;;;;;;3.78;2.70;;;;;;;27.18;44.72;102498.09;5092434;28;20473;-75
2022/08/10 08:00:15;;;;;;;3.97;2.53;;;;;;;27.30;44.38;102504.94;5091945;28;20036;-73
2022/08/10 08:02:49;;;;;;;3.38;2.45;;;;;;;27.39;43.99;102486.47;5092349;28;20068;-73
2022/08/10 08:05:21;;;;;;;3.20;2.42;;;;;;;27.50;43.98;102492.47;5091592;28;20044;-73
2022/08/10 08:08:09;;;;;;;5.85;2.50;;;;;;;27.65;43.64;102491.72;5091953;28;20398;-74
2022/08/10 08:10:37;;;;;;;3.35;2.42;;;;;;;27.76;43.29;102494.94;5091477;28;20044;-72
2022/08/10 08:13:05;;;;;;;4.95;2.17;;;;;;;27.92;42.97;102493.09;5091984;28;20040;-72
2022/08/10 08:15:33;;;;;;;3.20;2.50;;;;;;;28.04;42.67;102489.72;5091853;28;20062;-74
2022/08/10 08:18:21;;;;;;;3.72;1.90;;;;;;;28.15;42.16;102493.97;5092264;28;20040;-73
2022/08/10 08:20:51;;;;;;;3.05;1.95;;;;;;;28.29;41.87;102501.50;5092029;28;20036;-73
2022/08/10 08:23:26;;;;;;;2.47;1.80;;;;;;;28.40;41.47;102495.53;5091372;28;20048;-72
2022/08/10 08:26:14;;;;;;;3.47;1.70;;;;;;;28.54;41.35;102496.59;5090689;28;20035;-73
2022/08/10 08:28:44;;;;;;;2.45;1.60;;;;;;;28.70;41.25;102492.81;5091993;28;20040;-73
2022/08/10 08:31:16;;;;;;;3.70;2.20;;;;;;;28.82;40.47;102483.00;5091825;28;20050;-73
2022/08/10 08:33:45;;;;;;;3.20;1.67;;;;;;;28.94;40.32;102486.19;5090699;28;20040;-71
2022/08/10 08:36:14;;;;;;;4.88;2.08;;;;;;;29.04;40.21;102495.94;5091547;28;20058;-71
2022/08/10 08:38:42;;;;;;;6.55;2.00;;;;;;;29.16;39.92;102492.69;5091493;28;20485;-72
2022/08/10 08:41:21;;;;;;;3.72;1.88;;;;;;;29.29;39.54;102498.41;5096344;28;20379;-73
2022/08/10 08:44:13;;;;;;;3.20;2.03;;;;;;;29.46;39.19;102491.66;5091381;28;20039;-72
2022/08/10 08:46:58;;;;;;;2.63;1.73;;;;;;;29.66;39.08;102500.19;5089696;28;20036;-71
2022/08/10 08:49:46;;;;;;;4.15;1.80;;;;;;;29.80;38.74;102484.63;5091127;28;20119;-68
2022/08/10 08:52:47;;;;;;;3.67;1.80;;;;;;;30.00;38.49;102489.31;5105500;28;20046;-67
2022/08/10 08:55:21;;;;;;;3.42;1.50;;;;;;;30.17;38.24;102487.16;5105022;27;20032;-68
2022/08/10 08:58:13;;;;;;;3.53;2.00;;;;;;;30.38;38.10;102489.03;5090870;28;20052;-67
2022/08/10 09:00:55;;;;;;;4.40;1.58;;;;;;;30.55;37.45;102482.19;5091182;28;20074;-67
2022/08/10 09:04:04;;;;;;;4.00;1.80;;;;;;;30.75;37.32;102484.25;5091103;28;20058;-67
2022/08/10 09:07:16;;;;;;;5.63;2.25;;;;;;;30.93;37.08;102481.81;5090165;28;20044;-67
2022/08/10 09:10:29;;;;;;;3.75;1.65;;;;;;;31.08;36.64;102484.47;5089775;28;20044;-68
2022/08/10 09:13:12;;;;;;;2.78;1.77;;;;;;;31.16;36.31;102476.84;5073566;28;20051;-69
2022/08/10 09:15:50;;;;;;;2.85;1.80;;;;;;;31.23;35.85;102485.25;5089202;28;20036;-70
2022/08/10 09:18:27;;;;;;;3.63;1.85;;;;;;;31.32;35.53;102481.22;5092005;28;20054;-69
2022/08/10 09:21:08;;;;;;;5.32;2.05;;;;;;;31.39;35.27;102468.22;5095071;28;20028;-70
2022/08/10 09:24:12;;;;;;;2.80;1.90;;;;;;;31.48;34.74;102471.69;5093788;28;20339;-72
2022/08/10 09:26:50;;;;;;;5.28;2.08;;;;;;;31.62;34.74;102467.88;5095190;28;20603;-70
2022/08/10 09:29:24;;;;;;;4.38;1.80;;;;;;;31.67;34.41;102479.22;5095086;28;20127;-71
2022/08/10 09:32:05;;;;;;;4.90;1.98;;;;;;;31.75;34.21;102467.94;5095291;28;20044;-70
2022/08/10 09:35:11;;;;;;;5.55;2.20;;;;;;;31.84;33.95;102461.13;5095464;28;20517;-71
2022/08/10 09:38:32;;;;;;;4.88;2.00;;;;;;;31.95;33.78;102459.66;5093580;28;20032;-71
2022/08/10 09:41:21;;;;;;;2.33;1.90;;;;;;;32.08;33.78;102451.34;5094723;28;20070;-71
2022/08/10 09:43:57;;;;;;;3.72;2.30;;;;;;;32.21;33.73;102458.84;5094759;28;20036;-70
2022/08/10 09:46:38;;;;;;;5.53;2.10;;;;;;;32.29;33.29;102452.25;5094914;28;20071;-71
2022/08/10 09:49:15;;;;;;;5.57;2.35;;;;;;;32.36;32.87;102440.03;5094430;28;20050;-71
2022/08/10 09:51:49;;;;;;;4.13;2.08;;;;;;;32.40;32.90;102449.66;5092864;28;20036;-70
2022/08/10 09:54:45;;;;;;;3.55;2.05;;;;;;;32.46;32.45;102442.38;5094911;28;20048;-70
2022/08/10 09:57:22;;;;;;;2.45;1.80;;;;;;;32.59;32.49;102445.16;5094422;28;20164;-70
2022/08/10 10:00:14;;;;;;;3.53;2.00;;;;;;;32.74;32.70;102442.16;5094403;28;20044;-70
2022/08/10 10:02:42;;;;;;;2.65;1.83;;;;;;;32.85;32.55;102438.72;5094617;28;20390;-73
2022/08/10 10:05:31;;;;;;;3.28;1.60;;;;;;;32.94;32.03;102436.56;5094383;28;20066;-72
2022/08/10 10:08:35;;;;;;;5.53;2.20;;;;;;;33.01;31.63;102429.91;5092790;28;20044;-72
2022/08/10 10:11:08;;;;;;;3.92;1.95;;;;;;;33.11;31.41;102435.00;5094178;28;20550;-71
2022/08/10 10:14:03;;;;;;;4.78;1.90;;;;;;;33.14;31.64;102429.00;5094136;28;20379;-72
2022/08/10 10:16:44;;;;;;;3.00;2.10;;;;;;;33.24;31.41;102418.22;5092974;28;20050;-69
2022/08/10 10:19:32;;;;;;;5.03;2.40;;;;;;;33.31;31.00;102424.66;5093920;28;20413;-71
2022/08/10 10:22:42;;;;;;;3.40;2.20;;;;;;;33.40;31.11;102409.41;5093964;28;20533;-72
2022/08/10 10:25:35;;;;;;;5.03;2.00;;;;;;;33.50;31.08;102411.72;5094457;28;20297;-71
2022/08/10 10:28:36;;;;;;;8.60;2.35;;;;;;;33.65;30.67;102406.69;5093925;28;20500;-72
2022/08/10 10:31:35;;;;;;;7.05;2.17;;;;;;;33.77;30.34;102406.81;5093676;28;20501;-71
2022/08/10 10:34:19;;;;;;;3.22;2.30;;;;;;;33.81;30.02;102402.50;5094143;28;20056;-70
2022/08/10 10:36:48;;;;;;;3.58;2.10;;;;;;;33.88;29.92;102403.34;5093593;27;20058;-70
2022/08/10 10:39:18;;;;;;;4.00;2.38;;;;;;;33.98;29.87;102403.69;5092276;28;20036;-71
2022/08/10 10:42:06;;;;;;;;;;;;;;;34.07;29.69;102398.69;5092549;28;20052;-71
2022/08/10 10:45:05;;;;;;;2.70;1.80;;;;;;;34.17;29.71;102395.38;5093845;28;19924;-71
2022/08/10 10:47:45;;;;;;;3.42;2.22;;;;;;;34.23;29.26;102388.91;5093120;28;20036;-71
2022/08/10 10:50:18;;;;;;;3.70;1.88;;;;;;;34.33;28.86;102386.50;5091964;28;20036;-71
2022/08/10 10:53:02;;;;;;;2.80;2.20;;;;;;;34.45;28.92;102384.66;5093440;28;20043;-70
2022/08/10 10:55:33;;;;;;;5.22;2.17;;;;;;;34.55;28.69;102384.97;5093395;28;20077;-72
2022/08/10 10:58:36;;;;;;;2.50;2.17;;;;;;;34.59;27.82;102377.84;5093265;28;20509;-72
2022/08/10 11:01:09;;;;;;;3.55;1.90;;;;;;;34.59;27.78;102372.25;5093387;28;20040;-71
2022/08/10 11:04:05;;;;;;;4.22;2.08;;;;;;;34.68;27.76;102373.66;5093225;28;20036;-71
2022/08/10 11:06:50;;;;;;;;;;;;;;;34.81;28.36;102369.84;5093280;28;20033;-71
2022/08/10 11:09:37;;;;;;;6.28;2.20;;;;;;;34.95;28.03;102356.63;5093133;28;20117;-71
2022/08/10 11:12:45;;;;;;;4.57;2.17;;;;;;;35.02;27.10;102351.81;5092824;28;20051;-70
2022/08/10 11:15:35;;;;;;;2.10;1.90;;;;;;;35.02;26.89;102358.25;5093396;27;20052;-71
2022/08/10 11:18:32;;;;;;;6.88;2.08;;;;;;;34.96;26.88;102349.97;5093415;28;20059;-71
2022/08/10 11:21:26;;;;;;;4.95;2.30;;;;;;;34.96;26.87;102355.56;5092756;28;20063;-70
2022/08/10 11:24:06;;;;;;;4.32;1.92;;;;;;;35.03;26.78;102351.59;5092990;28;20055;-71
2022/08/10 11:27:04;;;;;;;3.92;2.08;;;;;;;35.11;26.29;102355.13;5092984;28;20032;-71
2022/08/10 11:29:44;;;;;;;2.88;1.80;;;;;;;35.16;26.59;102344.97;5093399;28;20134;-71
2022/08/10 11:32:24;;;;;;;2.53;2.10;;;;;;;35.24;26.00;102350.22;5092504;28;20067;-72
2022/08/10 11:35:36;;;;;;;7.30;2.22;;;;;;;35.30;26.03;102345.63;5091494;28;20169;-72
2022/08/10 11:38:44;;;;;;;6.03;2.22;;;;;;;35.40;26.24;102350.66;5087746;28;20056;-72
2022/08/10 11:41:45;;;;;;;3.30;1.92;;;;;;;35.51;26.15;102342.31;5047147;28;20041;-71
2022/08/10 11:44:42;;;;;;;2.58;2.00;;;;;;;35.62;25.88;102344.28;5049766;28;20049;-71
2022/08/10 11:47:11;;;;;;;2.80;1.88;;;;;;;35.71;25.87;102344.81;5089780;28;20052;-72
2022/08/10 11:50:07;;;;;;;4.53;1.80;;;;;;;35.76;25.50;102336.56;5092462;28;20037;-71
2022/08/10 11:52:44;;;;;;;5.90;2.00;;;;;;;35.81;25.76;102336.72;5077278;28;20067;-71
2022/08/10 11:55:18;;;;;;;3.83;1.80;;;;;;;35.90;25.28;102335.25;5092249;27;20410;-72
2022/08/10 11:57:47;;;;;;;3.95;2.10;;;;;;;36.00;25.63;102329.06;5091910;28;20081;-72
2022/08/10 12:00:20;;;;;;;4.25;2.00;;;;;;;36.08;25.64;102325.06;5091536;28;20540;-71
2022/08/10 12:03:04;;;;;;;4.32;2.00;;;;;;;36.17;25.43;102321.66;5092047;28;20047;-71
2022/08/10 12:05:34;;;;;;;4.60;2.03;;;;;;;36.25;25.04;102320.41;5092221;28;20067;-71
2022/08/10 12:08:22;;;;;;;3.50;2.13;;;;;;;36.32;25.15;102309.97;5091653;28;20051;-72
2022/08/10 12:11:14;;;;;;;5.45;2.25;;;;;;;36.39;24.78;102315.44;5091491;28;20051;-73
2022/08/10 12:14:14;;;;;;;3.78;2.30;;;;;;;36.41;24.06;102314.09;5092004;28;20578;-72
2022/08/10 12:16:53;;;;;;;4.70;1.80;;;;;;;36.45;23.90;102306.94;5091880;28;20036;-73
2022/08/10 12:19:30;;;;;;;3.10;1.83;;;;;;;36.48;23.89;102312.06;5091391;28;20055;-72
2022/08/10 12:22:23;;;;;;;3.75;1.85;;;;;;;36.58;24.05;102300.22;5091529;28;20126;-71
2022/08/10 12:24:56;;;;;;;3.53;1.95;;;;;;;36.60;23.94;102310.06;5091912;28;20056;-75
2022/08/10 12:27:47;;;;;;;4.20;2.08;;;;;;;36.64;23.90;102301.19;5091603;28;20044;-75